sensor_id;sensor_type;location;lat;lon;timestamp;pressure;altitude;pressure_sealevel;temperature;humidity
55733;BME280;41637;52.364;9.910;2022-07-21T00:02:17;100936.58;;;23.46;49.95
55733;BME280;41637;52.364;9.910;2022-07-21T00:04:44;100915.71;;;23.45;50.12
55733;BME280;41637;52.364;9.910;2022-07-21T00:07:11;100908.40;;;23.44;50.28
55733;BME280;41637;52.364;9.910;2022-07-21T00:09:38;100893.98;;;23.44;50.43
55733;BME280;41637;52.364;9.910;2022-07-21T00:12:05;100893.17;;;23.45;50.49
55733;BME280;41637;52.364;9.910;2022-07-21T00:14:32;100893.35;;;23.46;50.56
55733;BME280;41637;52.364;9.910;2022-07-21T00:16:59;100882.09;;;23.46;50.73
55733;BME280;41637;52.364;9.910;2022-07-21T00:19:26;100872.04;;;23.49;50.85
55733;BME280;41637;52.364;9.910;2022-07-21T00:21:53;100867.13;;;23.50;50.86
55733;BME280;41637;52.364;9.910;2022-07-21T00:24:20;100858.16;;;23.53;50.90
55733;BME280;41637;52.364;9.910;2022-07-21T00:26:47;100863.93;;;23.55;50.73
55733;BME280;41637;52.364;9.910;2022-07-21T00:29:14;100862.19;;;23.55;50.93
55733;BME280;41637;52.364;9.910;2022-07-21T00:31:41;100856.29;;;23.50;51.99
55733;BME280;41637;52.364;9.910;2022-07-21T00:34:08;100845.00;;;23.45;52.51
55733;BME280;41637;52.364;9.910;2022-07-21T00:36:35;100845.79;;;23.43;52.71
55733;BME280;41637;52.364;9.910;2022-07-21T00:39:02;100838.86;;;23.39;52.98
55733;BME280;41637;52.364;9.910;2022-07-21T00:41:29;100841.21;;;23.35;53.19
55733;BME280;41637;52.364;9.910;2022-07-21T00:43:56;100840.27;;;23.32;53.51
55733;BME280;41637;52.364;9.910;2022-07-21T00:46:23;100860.65;;;23.28;53.71
55733;BME280;41637;52.364;9.910;2022-07-21T00:48:50;100869.17;;;23.27;53.93
55733;BME280;41637;52.364;9.910;2022-07-21T00:51:18;100880.80;;;23.25;54.37
55733;BME280;41637;52.364;9.910;2022-07-21T00:53:45;100891.34;;;23.23;54.55
55733;BME280;41637;52.364;9.910;2022-07-21T00:56:12;100900.29;;;23.21;54.71
55733;BME280;41637;52.364;9.910;2022-07-21T00:58:40;100916.84;;;23.18;54.92
55733;BME280;41637;52.364;9.910;2022-07-21T01:01:07;100915.46;;;23.16;54.87
55733;BME280;41637;52.364;9.910;2022-07-21T01:03:34;100908.12;;;23.13;55.24
55733;BME280;41637;52.364;9.910;2022-07-21T01:06:04;100907.94;;;23.11;55.16
55733;BME280;41637;52.364;9.910;2022-07-21T01:08:31;100910.30;;;23.11;55.23
55733;BME280;41637;52.364;9.910;2022-07-21T01:10:58;100908.44;;;23.08;55.41
55733;BME280;41637;52.364;9.910;2022-07-21T01:13:24;100910.90;;;23.06;55.37
55733;BME280;41637;52.364;9.910;2022-07-21T01:15:51;100908.80;;;23.07;55.30
55733;BME280;41637;52.364;9.910;2022-07-21T01:18:18;100905.38;;;23.05;55.59
55733;BME280;41637;52.364;9.910;2022-07-21T01:20:50;100909.73;;;23.03;55.77
55733;BME280;41637;52.364;9.910;2022-07-21T01:23:17;100904.27;;;23.04;55.73
55733;BME280;41637;52.364;9.910;2022-07-21T01:25:50;100900.45;;;23.05;55.96
55733;BME280;41637;52.364;9.910;2022-07-21T01:28:17;100903.55;;;23.06;56.30
55733;BME280;41637;52.364;9.910;2022-07-21T01:30:44;100898.91;;;23.08;56.63
55733;BME280;41637;52.364;9.910;2022-07-21T01:33:12;100899.14;;;23.08;56.66
55733;BME280;41637;52.364;9.910;2022-07-21T01:35:38;100899.10;;;23.10;56.87
55733;BME280;41637;52.364;9.910;2022-07-21T01:38:06;100892.80;;;23.12;57.29
55733;BME280;41637;52.364;9.910;2022-07-21T01:40:59;100897.27;;;23.14;57.90
55733;BME280;41637;52.364;9.910;2022-07-21T01:43:45;100868.91;;;23.15;58.06
55733;BME280;41637;52.364;9.910;2022-07-21T01:46:13;100845.00;;;23.18;58.37
55733;BME280;41637;52.364;9.910;2022-07-21T01:48:44;100844.45;;;23.18;58.73
55733;BME280;41637;52.364;9.910;2022-07-21T01:51:11;100854.73;;;23.17;58.92
55733;BME280;41637;52.364;9.910;2022-07-21T01:53:38;100850.41;;;23.16;58.61
55733;BME280;41637;52.364;9.910;2022-07-21T01:56:06;100836.10;;;23.14;58.63
55733;BME280;41637;52.364;9.910;2022-07-21T01:58:34;100820.88;;;23.13;58.67
55733;BME280;41637;52.364;9.910;2022-07-21T02:01:01;100807.05;;;23.11;58.88
55733;BME280;41637;52.364;9.910;2022-07-21T02:03:32;100801.34;;;23.08;59.74
55733;BME280;41637;52.364;9.910;2022-07-21T02:06:06;100814.90;;;23.06;60.19
55733;BME280;41637;52.364;9.910;2022-07-21T02:08:34;100822.63;;;23.05;60.50
55733;BME280;41637;52.364;9.910;2022-07-21T02:11:01;100801.95;;;23.04;61.14
55733;BME280;41637;52.364;9.910;2022-07-21T02:13:31;100802.94;;;23.01;61.55
55733;BME280;41637;52.364;9.910;2022-07-21T02:15:57;100823.85;;;22.99;61.82
55733;BME280;41637;52.364;9.910;2022-07-21T02:18:25;100835.67;;;22.97;62.20
55733;BME280;41637;52.364;9.910;2022-07-21T02:20:52;100833.11;;;22.96;62.50
55733;BME280;41637;52.364;9.910;2022-07-21T02:23:20;100830.33;;;22.93;63.01
55733;BME280;41637;52.364;9.910;2022-07-21T02:25:47;100837.19;;;22.87;63.93
55733;BME280;41637;52.364;9.910;2022-07-21T02:28:15;100847.59;;;22.80;64.88
55733;BME280;41637;52.364;9.910;2022-07-21T02:30:42;100829.34;;;22.72;65.37
55733;BME280;41637;52.364;9.910;2022-07-21T02:33:14;100806.04;;;22.65;66.64
55733;BME280;41637;52.364;9.910;2022-07-21T02:35:41;100802.09;;;22.55;67.69
55733;BME280;41637;52.364;9.910;2022-07-21T02:38:09;100814.44;;;22.40;68.90
55733;BME280;41637;52.364;9.910;2022-07-21T02:40:36;100823.11;;;22.18;70.19
55733;BME280;41637;52.364;9.910;2022-07-21T02:43:04;100824.06;;;22.02;70.89
55733;BME280;41637;52.364;9.910;2022-07-21T02:45:33;100846.09;;;21.87;71.54
55733;BME280;41637;52.364;9.910;2022-07-21T02:48:06;100878.17;;;21.77;72.19
55733;BME280;41637;52.364;9.910;2022-07-21T02:50:35;100902.67;;;21.69;72.46
55733;BME280;41637;52.364;9.910;2022-07-21T02:53:14;100907.06;;;21.64;72.78
55733;BME280;41637;52.364;9.910;2022-07-21T02:55:45;100899.23;;;21.57;74.37
55733;BME280;41637;52.364;9.910;2022-07-21T02:58:14;100889.06;;;21.50;75.88
55733;BME280;41637;52.364;9.910;2022-07-21T03:03:20;100883.46;;;21.40;78.47
55733;BME280;41637;52.364;9.910;2022-07-21T03:05:48;100874.09;;;21.36;79.01
55733;BME280;41637;52.364;9.910;2022-07-21T03:08:16;100862.29;;;21.31;79.55
55733;BME280;41637;52.364;9.910;2022-07-21T03:10:43;100851.85;;;21.24;81.13
55733;BME280;41637;52.364;9.910;2022-07-21T03:13:10;100835.77;;;21.17;81.50
55733;BME280;41637;52.364;9.910;2022-07-21T03:15:38;100829.73;;;21.11;82.42
55733;BME280;41637;52.364;9.910;2022-07-21T03:18:05;100834.68;;;21.05;83.22
55733;BME280;41637;52.364;9.910;2022-07-21T03:20:35;100831.83;;;21.00;83.32
55733;BME280;41637;52.364;9.910;2022-07-21T03:23:03;100836.59;;;20.95;83.69
55733;BME280;41637;52.364;9.910;2022-07-21T03:25:30;100842.27;;;20.93;85.02
55733;BME280;41637;52.364;9.910;2022-07-21T03:27:57;100830.67;;;20.90;85.98
55733;BME280;41637;52.364;9.910;2022-07-21T03:30:24;100816.77;;;20.91;85.03
55733;BME280;41637;52.364;9.910;2022-07-21T03:32:51;100831.36;;;20.93;84.74
55733;BME280;41637;52.364;9.910;2022-07-21T03:35:18;100837.95;;;20.95;84.72
55733;BME280;41637;52.364;9.910;2022-07-21T03:37:50;100841.52;;;20.98;85.19
55733;BME280;41637;52.364;9.910;2022-07-21T03:40:19;100855.07;;;21.00;84.24
55733;BME280;41637;52.364;9.910;2022-07-21T03:42:50;100848.49;;;21.03;83.73
55733;BME280;41637;52.364;9.910;2022-07-21T03:45:17;100835.31;;;21.07;83.51
55733;BME280;41637;52.364;9.910;2022-07-21T03:47:44;100831.85;;;21.09;83.29
55733;BME280;41637;52.364;9.910;2022-07-21T03:50:11;100816.56;;;21.11;83.05
55733;BME280;41637;52.364;9.910;2022-07-21T03:52:39;100806.55;;;21.13;83.09
55733;BME280;41637;52.364;9.910;2022-07-21T03:55:07;100791.35;;;21.14;83.18
55733;BME280;41637;52.364;9.910;2022-07-21T03:57:43;100771.04;;;21.12;83.64
55733;BME280;41637;52.364;9.910;2022-07-21T04:00:15;100773.58;;;21.09;83.54
55733;BME280;41637;52.364;9.910;2022-07-21T04:02:43;100781.13;;;21.08;82.85
55733;BME280;41637;52.364;9.910;2022-07-21T04:05:11;100795.14;;;21.06;82.59
55733;BME280;41637;52.364;9.910;2022-07-21T04:07:40;100808.52;;;21.02;82.05
55733;BME280;41637;52.364;9.910;2022-07-21T04:10:11;100831.66;;;20.99;82.44
55733;BME280;41637;52.364;9.910;2022-07-21T04:12:38;100849.95;;;20.96;83.06
55733;BME280;41637;52.364;9.910;2022-07-21T04:15:06;100851.20;;;20.92;83.15
55733;BME280;41637;52.364;9.910;2022-07-21T04:17:36;100856.47;;;20.91;83.25
55733;BME280;41637;52.364;9.910;2022-07-21T04:20:04;100866.90;;;20.90;83.77
55733;BME280;41637;52.364;9.910;2022-07-21T04:22:31;100881.90;;;20.89;84.30
55733;BME280;41637;52.364;9.910;2022-07-21T04:24:58;100897.20;;;20.87;85.20
55733;BME280;41637;52.364;9.910;2022-07-21T04:27:27;100903.50;;;20.86;85.57
55733;BME280;41637;52.364;9.910;2022-07-21T04:29:54;100902.95;;;20.85;85.85
55733;BME280;41637;52.364;9.910;2022-07-21T04:32:21;100893.15;;;20.83;85.66
55733;BME280;41637;52.364;9.910;2022-07-21T04:34:49;100895.82;;;20.82;85.08
55733;BME280;41637;52.364;9.910;2022-07-21T04:37:15;100922.91;;;20.81;84.54
55733;BME280;41637;52.364;9.910;2022-07-21T04:39:43;100943.98;;;20.80;84.08
55733;BME280;41637;52.364;9.910;2022-07-21T04:42:17;100949.67;;;20.79;84.45
55733;BME280;41637;52.364;9.910;2022-07-21T04:44:44;100954.91;;;20.79;84.30
55733;BME280;41637;52.364;9.910;2022-07-21T04:47:12;100958.83;;;20.79;85.12
55733;BME280;41637;52.364;9.910;2022-07-21T04:49:39;100951.37;;;20.74;87.38
55733;BME280;41637;52.364;9.910;2022-07-21T04:52:06;100935.96;;;20.71;88.14
55733;BME280;41637;52.364;9.910;2022-07-21T04:54:33;100938.13;;;20.68;88.63
55733;BME280;41637;52.364;9.910;2022-07-21T04:57:00;100939.56;;;20.65;89.07
55733;BME280;41637;52.364;9.910;2022-07-21T04:59:30;100945.00;;;20.65;89.20
55733;BME280;41637;52.364;9.910;2022-07-21T05:01:57;100946.36;;;20.63;89.73
55733;BME280;41637;52.364;9.910;2022-07-21T05:04:25;100944.98;;;20.61;89.83
55733;BME280;41637;52.364;9.910;2022-07-21T05:06:52;100951.34;;;20.57;90.48
55733;BME280;41637;52.364;9.910;2022-07-21T05:09:20;100954.23;;;20.54;90.45
55733;BME280;41637;52.364;9.910;2022-07-21T05:11:47;100954.69;;;20.53;90.74
55733;BME280;41637;52.364;9.910;2022-07-21T05:14:14;100945.69;;;20.53;90.48
55733;BME280;41637;52.364;9.910;2022-07-21T05:16:41;100942.88;;;20.53;90.45
55733;BME280;41637;52.364;9.910;2022-07-21T05:19:09;100942.20;;;20.53;90.58
55733;BME280;41637;52.364;9.910;2022-07-21T05:21:36;100946.20;;;20.54;90.35
55733;BME280;41637;52.364;9.910;2022-07-21T05:24:03;100946.56;;;20.58;90.60
55733;BME280;41637;52.364;9.910;2022-07-21T05:26:30;100946.80;;;20.61;90.76
55733;BME280;41637;52.364;9.910;2022-07-21T05:28:57;100939.93;;;20.63;90.68
55733;BME280;41637;52.364;9.910;2022-07-21T05:31:24;100933.70;;;20.68;90.05
55733;BME280;41637;52.364;9.910;2022-07-21T05:33:52;100935.98;;;20.72;89.86
55733;BME280;41637;52.364;9.910;2022-07-21T05:36:19;100941.83;;;20.80;89.21
55733;BME280;41637;52.364;9.910;2022-07-21T05:38:47;100943.13;;;20.88;88.55
55733;BME280;41637;52.364;9.910;2022-07-21T05:41:14;100942.42;;;20.95;88.17
55733;BME280;41637;52.364;9.910;2022-07-21T05:43:41;100943.88;;;21.04;87.59
55733;BME280;41637;52.364;9.910;2022-07-21T05:46:08;100943.53;;;21.13;87.01
55733;BME280;41637;52.364;9.910;2022-07-21T05:48:35;100942.09;;;21.22;86.47
55733;BME280;41637;52.364;9.910;2022-07-21T05:51:06;100943.45;;;21.28;85.84
55733;BME280;41637;52.364;9.910;2022-07-21T05:53:38;100951.06;;;21.34;85.37
55733;BME280;41637;52.364;9.910;2022-07-21T05:56:05;100954.80;;;21.39;84.74
55733;BME280;41637;52.364;9.910;2022-07-21T05:58:35;100955.48;;;21.43;84.54
55733;BME280;41637;52.364;9.910;2022-07-21T06:01:06;100960.84;;;21.44;83.91
55733;BME280;41637;52.364;9.910;2022-07-21T06:03:47;100961.51;;;21.45;84.07
55733;BME280;41637;52.364;9.910;2022-07-21T06:06:16;100964.95;;;21.47;83.84
55733;BME280;41637;52.364;9.910;2022-07-21T06:08:44;100971.13;;;21.48;83.25
55733;BME280;41637;52.364;9.910;2022-07-21T06:11:14;100982.13;;;21.50;82.86
55733;BME280;41637;52.364;9.910;2022-07-21T06:13:41;100986.52;;;21.51;82.20
55733;BME280;41637;52.364;9.910;2022-07-21T06:16:08;100991.30;;;21.52;81.42
55733;BME280;41637;52.364;9.910;2022-07-21T06:18:36;100991.52;;;21.53;80.83
55733;BME280;41637;52.364;9.910;2022-07-21T06:21:06;100997.65;;;21.54;80.59
55733;BME280;41637;52.364;9.910;2022-07-21T06:23:33;100995.88;;;21.64;80.13
55733;BME280;41637;52.364;9.910;2022-07-21T06:26:00;100995.73;;;21.70;78.88
55733;BME280;41637;52.364;9.910;2022-07-21T06:28:29;100996.92;;;21.80;78.34
55733;BME280;41637;52.364;9.910;2022-07-21T06:30:56;101000.63;;;21.89;77.09
55733;BME280;41637;52.364;9.910;2022-07-21T06:33:24;101005.13;;;22.00;76.64
55733;BME280;41637;52.364;9.910;2022-07-21T06:35:50;101004.61;;;22.11;76.09
55733;BME280;41637;52.364;9.910;2022-07-21T06:38:17;101009.41;;;22.23;75.75
55733;BME280;41637;52.364;9.910;2022-07-21T06:40:44;101010.77;;;22.35;75.37
55733;BME280;41637;52.364;9.910;2022-07-21T06:43:11;101010.17;;;22.38;74.26
55733;BME280;41637;52.364;9.910;2022-07-21T06:45:55;101012.79;;;22.44;74.29
55733;BME280;41637;52.364;9.910;2022-07-21T06:48:22;101015.85;;;22.46;74.66
55733;BME280;41637;52.364;9.910;2022-07-21T06:50:50;101014.77;;;22.42;74.33
55733;BME280;41637;52.364;9.910;2022-07-21T06:53:17;101018.27;;;22.37;74.44
55733;BME280;41637;52.364;9.910;2022-07-21T06:55:43;101016.55;;;22.35;75.04
55733;BME280;41637;52.364;9.910;2022-07-21T06:58:19;101018.47;;;22.34;75.06
55733;BME280;41637;52.364;9.910;2022-07-21T07:00:46;101018.87;;;22.31;75.10
55733;BME280;41637;52.364;9.910;2022-07-21T07:03:14;101015.02;;;22.31;75.43
55733;BME280;41637;52.364;9.910;2022-07-21T07:05:43;101019.23;;;22.33;75.93
55733;BME280;41637;52.364;9.910;2022-07-21T07:08:10;101021.13;;;22.34;76.04
55733;BME280;41637;52.364;9.910;2022-07-21T07:10:39;101017.27;;;22.33;76.11
55733;BME280;41637;52.364;9.910;2022-07-21T07:13:06;101017.75;;;22.33;76.11
55733;BME280;41637;52.364;9.910;2022-07-21T07:15:53;101014.44;;;22.34;75.91
55733;BME280;41637;52.364;9.910;2022-07-21T07:18:20;101015.63;;;22.38;75.70
55733;BME280;41637;52.364;9.910;2022-07-21T07:20:48;101011.37;;;22.46;75.57
55733;BME280;41637;52.364;9.910;2022-07-21T07:23:16;101010.20;;;22.57;74.93
55733;BME280;41637;52.364;9.910;2022-07-21T07:25:44;101009.54;;;22.78;74.60
55733;BME280;41637;52.364;9.910;2022-07-21T07:28:11;101002.27;;;22.97;73.78
55733;BME280;41637;52.364;9.910;2022-07-21T07:30:38;101006.42;;;23.07;72.57
55733;BME280;41637;52.364;9.910;2022-07-21T07:33:06;101001.09;;;23.16;72.12
55733;BME280;41637;52.364;9.910;2022-07-21T07:35:33;101008.30;;;23.31;71.73
55733;BME280;41637;52.364;9.910;2022-07-21T07:38:00;101005.89;;;23.46;71.70
55733;BME280;41637;52.364;9.910;2022-07-21T07:40:28;101000.11;;;23.58;70.69
55733;BME280;41637;52.364;9.910;2022-07-21T07:42:56;101003.48;;;23.69;69.72
55733;BME280;41637;52.364;9.910;2022-07-21T07:45:29;101005.54;;;23.69;68.86
55733;BME280;41637;52.364;9.910;2022-07-21T07:47:56;101007.35;;;23.67;68.26
55733;BME280;41637;52.364;9.910;2022-07-21T07:50:22;101014.33;;;23.66;68.65
55733;BME280;41637;52.364;9.910;2022-07-21T07:52:50;101012.90;;;23.68;68.67
55733;BME280;41637;52.364;9.910;2022-07-21T07:55:17;101021.63;;;23.64;68.67
55733;BME280;41637;52.364;9.910;2022-07-21T07:57:44;101025.34;;;23.56;68.62
55733;BME280;41637;52.364;9.910;2022-07-21T08:00:18;101028.32;;;23.48;68.81
55733;BME280;41637;52.364;9.910;2022-07-21T08:03:05;101027.42;;;23.40;69.00
55733;BME280;41637;52.364;9.910;2022-07-21T08:05:32;101029.77;;;23.38;69.63
55733;BME280;41637;52.364;9.910;2022-07-21T08:07:59;101030.59;;;23.37;69.42
55733;BME280;41637;52.364;9.910;2022-07-21T08:10:26;101033.94;;;23.25;68.49
55733;BME280;41637;52.364;9.910;2022-07-21T08:13:14;101043.30;;;23.19;69.14
55733;BME280;41637;52.364;9.910;2022-07-21T08:15:43;101048.80;;;23.11;68.19
55733;BME280;41637;52.364;9.910;2022-07-21T08:18:10;101057.49;;;22.99;68.01
55733;BME280;41637;52.364;9.910;2022-07-21T08:20:38;101058.98;;;22.86;68.49
55733;BME280;41637;52.364;9.910;2022-07-21T08:23:05;101063.70;;;22.73;69.60
55733;BME280;41637;52.364;9.910;2022-07-21T08:25:32;101056.00;;;22.57;71.03
55733;BME280;41637;52.364;9.910;2022-07-21T08:27:59;101064.32;;;22.40;72.92
55733;BME280;41637;52.364;9.910;2022-07-21T08:30:27;101066.17;;;22.09;75.60
55733;BME280;41637;52.364;9.910;2022-07-21T08:32:57;101059.84;;;21.77;78.41
55733;BME280;41637;52.364;9.910;2022-07-21T08:35:25;101067.86;;;21.39;81.24
55733;BME280;41637;52.364;9.910;2022-07-21T08:37:57;101069.80;;;21.14;82.38
55733;BME280;41637;52.364;9.910;2022-07-21T08:40:28;101073.30;;;20.90;84.88
55733;BME280;41637;52.364;9.910;2022-07-21T08:42:55;101075.55;;;20.72;86.28
55733;BME280;41637;52.364;9.910;2022-07-21T08:45:23;101074.97;;;20.58;87.61
55733;BME280;41637;52.364;9.910;2022-07-21T08:47:55;101075.45;;;20.54;87.96
55733;BME280;41637;52.364;9.910;2022-07-21T08:50:24;101073.95;;;20.52;88.43
55733;BME280;41637;52.364;9.910;2022-07-21T08:52:51;101074.95;;;20.57;88.23
55733;BME280;41637;52.364;9.910;2022-07-21T08:55:29;101071.86;;;20.65;88.25
55733;BME280;41637;52.364;9.910;2022-07-21T08:57:57;101076.63;;;20.75;88.29
55733;BME280;41637;52.364;9.910;2022-07-21T09:00:25;101075.05;;;20.86;88.28
55733;BME280;41637;52.364;9.910;2022-07-21T09:03:09;101077.27;;;21.00;88.21
55733;BME280;41637;52.364;9.910;2022-07-21T09:05:37;101072.54;;;21.18;87.82
55733;BME280;41637;52.364;9.910;2022-07-21T09:08:04;101065.82;;;21.36;87.17
55733;BME280;41637;52.364;9.910;2022-07-21T09:10:32;101060.02;;;21.58;86.20
55733;BME280;41637;52.364;9.910;2022-07-21T09:13:05;101062.58;;;21.76;84.36
55733;BME280;41637;52.364;9.910;2022-07-21T09:15:33;101068.92;;;21.94;82.90
55733;BME280;41637;52.364;9.910;2022-07-21T09:20:38;101070.34;;;22.12;79.66
55733;BME280;41637;52.364;9.910;2022-07-21T09:23:11;101070.16;;;22.25;78.88
55733;BME280;41637;52.364;9.910;2022-07-21T09:25:55;101067.98;;;22.43;78.25
55733;BME280;41637;52.364;9.910;2022-07-21T09:28:25;101068.48;;;22.54;75.70
55733;BME280;41637;52.364;9.910;2022-07-21T09:30:54;101070.75;;;22.56;75.68
55733;BME280;41637;52.364;9.910;2022-07-21T09:33:33;101067.20;;;22.45;74.85
55733;BME280;41637;52.364;9.910;2022-07-21T09:36:11;101073.83;;;22.33;75.46
55733;BME280;41637;52.364;9.910;2022-07-21T09:38:41;101071.96;;;22.24;75.45
55733;BME280;41637;52.364;9.910;2022-07-21T09:41:14;101077.39;;;22.13;75.81
55733;BME280;41637;52.364;9.910;2022-07-21T09:43:43;101080.92;;;22.00;75.28
55733;BME280;41637;52.364;9.910;2022-07-21T09:46:21;101085.48;;;21.95;75.86
55733;BME280;41637;52.364;9.910;2022-07-21T09:48:52;101086.70;;;21.88;76.09
55733;BME280;41637;52.364;9.910;2022-07-21T09:51:39;101090.59;;;21.77;76.45
55733;BME280;41637;52.364;9.910;2022-07-21T09:54:10;101090.51;;;21.68;76.99
55733;BME280;41637;52.364;9.910;2022-07-21T09:56:39;101092.60;;;21.62;76.71
55733;BME280;41637;52.364;9.910;2022-07-21T09:59:08;101091.67;;;21.64;77.09
55733;BME280;41637;52.364;9.910;2022-07-21T10:01:36;101092.66;;;21.70;76.85
55733;BME280;41637;52.364;9.910;2022-07-21T10:04:05;101086.52;;;21.81;77.27
55733;BME280;41637;52.364;9.910;2022-07-21T10:06:35;101092.07;;;21.98;76.79
55733;BME280;41637;52.364;9.910;2022-07-21T10:09:05;101092.39;;;22.18;75.67
55733;BME280;41637;52.364;9.910;2022-07-21T10:11:32;101091.08;;;22.37;74.47
55733;BME280;41637;52.364;9.910;2022-07-21T10:14:00;101095.08;;;22.53;73.43
55733;BME280;41637;52.364;9.910;2022-07-21T10:16:28;101097.42;;;22.68;72.25
55733;BME280;41637;52.364;9.910;2022-07-21T10:19:52;101093.42;;;22.81;71.04
55733;BME280;41637;52.364;9.910;2022-07-21T10:24:52;101084.17;;;23.53;69.13
55733;BME280;41637;52.364;9.910;2022-07-21T10:27:19;101076.95;;;23.87;67.95
55733;BME280;41637;52.364;9.910;2022-07-21T10:29:59;101068.46;;;24.16;66.39
55733;BME280;41637;52.364;9.910;2022-07-21T10:32:33;101062.78;;;24.35;64.50
55733;BME280;41637;52.364;9.910;2022-07-21T10:35:29;101061.89;;;24.56;63.90
55733;BME280;41637;52.364;9.910;2022-07-21T10:37:58;101058.44;;;24.90;63.00
55733;BME280;41637;52.364;9.910;2022-07-21T10:47:59;101039.83;;;25.93;59.22
55733;BME280;41637;52.364;9.910;2022-07-21T10:53:05;101045.37;;;26.63;56.70
55733;BME280;41637;52.364;9.910;2022-07-21T10:55:38;101041.94;;;26.92;57.18
55733;BME280;41637;52.364;9.910;2022-07-21T10:58:16;101040.06;;;27.28;55.05
55733;BME280;41637;52.364;9.910;2022-07-21T11:00:54;101040.44;;;27.52;53.82
55733;BME280;41637;52.364;9.910;2022-07-21T11:08:35;101029.27;;;27.41;52.17
55733;BME280;41637;52.364;9.910;2022-07-21T11:11:23;101032.62;;;27.35;50.60
55733;BME280;41637;52.364;9.910;2022-07-21T11:14:07;101028.30;;;27.52;51.51
55733;BME280;41637;52.364;9.910;2022-07-21T11:22:05;101017.05;;;27.44;49.66
55733;BME280;41637;52.364;9.910;2022-07-21T11:24:32;101012.58;;;27.44;49.78
55733;BME280;41637;52.364;9.910;2022-07-21T11:27:05;101008.18;;;27.50;49.07
55733;BME280;41637;52.364;9.910;2022-07-21T11:29:37;101008.52;;;27.38;48.54
55733;BME280;41637;52.364;9.910;2022-07-21T11:32:23;101018.20;;;27.32;48.46
55733;BME280;41637;52.364;9.910;2022-07-21T11:34:59;101017.67;;;27.24;48.28
55733;BME280;41637;52.364;9.910;2022-07-21T11:37:35;101022.05;;;27.13;47.63
55733;BME280;41637;52.364;9.910;2022-07-21T11:40:07;101018.64;;;27.09;47.99
55733;BME280;41637;52.364;9.910;2022-07-21T11:42:35;101018.85;;;27.10;48.42
55733;BME280;41637;52.364;9.910;2022-07-21T11:45:03;101016.73;;;27.14;48.75
55733;BME280;41637;52.364;9.910;2022-07-21T11:47:31;101017.27;;;27.30;48.65
55733;BME280;41637;52.364;9.910;2022-07-21T11:49:59;101007.19;;;27.32;47.69
55733;BME280;41637;52.364;9.910;2022-07-21T11:52:32;101002.02;;;27.39;48.33
55733;BME280;41637;52.364;9.910;2022-07-21T11:55:01;100999.98;;;27.56;47.15
55733;BME280;41637;52.364;9.910;2022-07-21T11:57:29;100992.23;;;27.83;46.72
55733;BME280;41637;52.364;9.910;2022-07-21T11:59:57;100992.10;;;28.29;45.96
55733;BME280;41637;52.364;9.910;2022-07-21T12:02:29;100990.69;;;28.61;44.64
55733;BME280;41637;52.364;9.910;2022-07-21T12:05:02;100980.45;;;28.73;44.50
55733;BME280;41637;52.364;9.910;2022-07-21T12:07:41;100973.17;;;28.88;44.72
55733;BME280;41637;52.364;9.910;2022-07-21T12:12:44;100970.69;;;28.82;43.81
55733;BME280;41637;52.364;9.910;2022-07-21T12:15:23;100978.45;;;28.72;43.78
55733;BME280;41637;52.364;9.910;2022-07-21T12:17:52;100977.05;;;28.59;43.14
55733;BME280;41637;52.364;9.910;2022-07-21T12:20:40;100978.23;;;28.50;43.48
55733;BME280;41637;52.364;9.910;2022-07-21T12:25:45;100981.96;;;27.95;42.92
55733;BME280;41637;52.364;9.910;2022-07-21T12:28:18;100978.51;;;27.71;43.33
55733;BME280;41637;52.364;9.910;2022-07-21T12:30:46;100977.39;;;27.61;43.96
55733;BME280;41637;52.364;9.910;2022-07-21T12:33:15;100979.58;;;27.57;45.28
55733;BME280;41637;52.364;9.910;2022-07-21T12:35:45;100979.90;;;27.40;45.60
55733;BME280;41637;52.364;9.910;2022-07-21T12:38:15;100978.11;;;27.27;46.27
55733;BME280;41637;52.364;9.910;2022-07-21T12:40:45;100974.11;;;27.17;46.80
55733;BME280;41637;52.364;9.910;2022-07-21T12:43:32;100981.83;;;26.96;47.35
55733;BME280;41637;52.364;9.910;2022-07-21T12:46:11;100985.15;;;26.74;47.50
55733;BME280;41637;52.364;9.910;2022-07-21T12:48:39;100977.71;;;26.70;48.07
55733;BME280;41637;52.364;9.910;2022-07-21T12:51:20;100983.13;;;26.62;47.73
55733;BME280;41637;52.364;9.910;2022-07-21T12:53:52;100986.33;;;26.49;47.79
55733;BME280;41637;52.364;9.910;2022-07-21T12:56:23;100988.40;;;26.40;48.14
55733;BME280;41637;52.364;9.910;2022-07-21T12:58:52;100999.08;;;26.23;49.79
55733;BME280;41637;52.364;9.910;2022-07-21T13:01:20;101008.92;;;26.09;52.74
55733;BME280;41637;52.364;9.910;2022-07-21T13:03:48;101021.92;;;25.67;54.07
55733;BME280;41637;52.364;9.910;2022-07-21T13:06:15;101020.35;;;25.32;56.32
55733;BME280;41637;52.364;9.910;2022-07-21T13:08:44;101026.19;;;25.09;57.95
55733;BME280;41637;52.364;9.910;2022-07-21T13:11:14;101034.90;;;24.76;57.40
55733;BME280;41637;52.364;9.910;2022-07-21T13:13:41;101040.83;;;24.41;60.13
55733;BME280;41637;52.364;9.910;2022-07-21T13:16:08;101041.76;;;24.24;61.56
55733;BME280;41637;52.364;9.910;2022-07-21T13:18:35;101033.19;;;24.20;61.88
55733;BME280;41637;52.364;9.910;2022-07-21T13:21:04;101036.62;;;24.14;61.32
55733;BME280;41637;52.364;9.910;2022-07-21T13:23:32;101038.48;;;24.09;61.63
55733;BME280;41637;52.364;9.910;2022-07-21T13:25:59;101036.85;;;24.14;61.92
55733;BME280;41637;52.364;9.910;2022-07-21T13:28:32;101031.06;;;24.17;61.77
55733;BME280;41637;52.364;9.910;2022-07-21T13:31:01;101030.34;;;24.09;60.53
55733;BME280;41637;52.364;9.910;2022-07-21T13:33:30;101026.83;;;24.15;60.19
55733;BME280;41637;52.364;9.910;2022-07-21T13:35:58;101029.42;;;24.16;60.27
55733;BME280;41637;52.364;9.910;2022-07-21T13:38:25;101030.60;;;24.19;60.32